createdAt,value
2018-09-22T00:01:43.821Z,9.30
2018-09-22T00:04:12.299Z,9.30
2018-09-22T00:06:40.813Z,9.30
2018-09-22T00:09:10.562Z,9.30
2018-09-22T00:11:39.157Z,9.30
2018-09-22T00:14:07.720Z,9.30
2018-09-22T00:16:36.212Z,9.30
2018-09-22T00:19:04.865Z,9.40
2018-09-22T00:21:33.338Z,9.30
2018-09-22T00:24:01.789Z,9.30
2018-09-22T00:26:30.271Z,9.30
2018-09-22T00:28:58.803Z,9.20
2018-09-22T00:31:27.372Z,9.30
2018-09-22T00:33:55.940Z,9.30
2018-09-22T00:36:24.472Z,9.30
2018-09-22T00:38:52.999Z,9.20
2018-09-22T00:41:21.687Z,9.10
2018-09-22T00:43:50.248Z,9.00
2018-09-22T00:46:18.778Z,8.90
2018-09-22T00:48:47.236Z,8.90
2018-09-22T00:51:15.733Z,8.80
2018-09-22T00:53:44.238Z,8.80
2018-09-22T00:56:12.751Z,8.80
2018-09-22T00:58:41.272Z,8.70
2018-09-22T01:01:10.319Z,8.80
2018-09-22T01:03:38.805Z,8.80
2018-09-22T01:06:07.620Z,8.80
2018-09-22T01:08:36.178Z,8.80
2018-09-22T01:11:04.703Z,8.80
2018-09-22T01:13:33.232Z,8.80
2018-09-22T01:16:01.786Z,8.80
2018-09-22T01:18:30.434Z,8.80
2018-09-22T01:20:58.894Z,8.80
2018-09-22T01:23:27.396Z,8.80
2018-09-22T01:25:55.983Z,8.80
2018-09-22T01:28:24.458Z,8.80
2018-09-22T01:30:53.754Z,8.80
2018-09-22T01:33:22.221Z,8.80
2018-09-22T01:35:50.730Z,8.80
2018-09-22T01:38:19.231Z,8.90
2018-09-22T01:40:47.727Z,8.90
2018-09-22T01:43:16.339Z,9.00
2018-09-22T01:45:44.859Z,9.00
2018-09-22T01:48:13.460Z,9.10
2018-09-22T01:50:41.983Z,9.10
2018-09-22T01:53:10.540Z,9.00
2018-09-22T01:55:39.023Z,9.10
2018-09-22T01:58:07.515Z,9.10
2018-09-22T02:00:36.039Z,9.10
2018-09-22T02:03:04.530Z,9.10
2018-09-22T02:05:33.201Z,9.10
2018-09-22T02:08:01.737Z,9.20
2018-09-22T02:10:30.237Z,9.20
2018-09-22T02:12:58.785Z,9.30
2018-09-22T02:15:27.439Z,9.30
2018-09-22T02:17:55.939Z,9.40
2018-09-22T02:20:24.507Z,9.40
2018-09-22T02:22:52.968Z,9.40
2018-09-22T02:25:21.481Z,9.40
2018-09-22T02:27:49.965Z,9.40
2018-09-22T02:30:18.421Z,9.40
2018-09-22T02:32:47.038Z,9.50
2018-09-22T02:35:15.509Z,9.50
2018-09-22T02:37:44.048Z,9.50
2018-09-22T02:40:12.539Z,9.50
2018-09-22T02:42:41.048Z,9.50
2018-09-22T02:45:09.502Z,9.50
2018-09-22T02:47:38.090Z,9.50
2018-09-22T02:50:06.632Z,9.50
2018-09-22T02:52:35.175Z,9.40
2018-09-22T02:55:03.700Z,9.40
2018-09-22T02:57:32.204Z,9.50
2018-09-22T03:00:00.665Z,9.50
2018-09-22T03:02:29.152Z,9.50
2018-09-22T03:04:57.651Z,9.50
2018-09-22T03:07:26.125Z,9.50
2018-09-22T03:09:54.624Z,9.50
2018-09-22T03:12:23.120Z,9.50
2018-09-22T03:14:51.765Z,9.60
2018-09-22T03:17:20.310Z,9.50
2018-09-22T03:19:48.797Z,9.60
2018-09-22T03:22:17.312Z,9.50
2018-09-22T03:24:45.779Z,9.40
2018-09-22T03:27:14.319Z,9.30
2018-09-22T03:29:42.813Z,9.20
2018-09-22T03:32:11.519Z,9.10
2018-09-22T03:34:40.009Z,9.00
2018-09-22T03:37:08.465Z,9.00
2018-09-22T03:39:36.953Z,8.90
2018-09-22T03:42:05.623Z,8.90
2018-09-22T03:44:34.071Z,8.80
2018-09-22T03:47:02.581Z,8.80
2018-09-22T03:49:31.076Z,8.80
2018-09-22T03:51:59.586Z,8.80
2018-09-22T03:54:34.555Z,8.90
2018-09-22T03:57:03.090Z,8.90
2018-09-22T03:59:31.648Z,8.90
2018-09-22T04:02:00.095Z,8.90
2018-09-22T04:04:28.536Z,9.00
2018-09-22T04:06:57.025Z,8.90
2018-09-22T04:09:25.503Z,8.80
2018-09-22T04:11:54.003Z,8.80
2018-09-22T04:14:22.537Z,8.80
2018-09-22T04:16:51.032Z,8.80
2018-09-22T04:19:19.516Z,8.80
2018-09-22T04:21:47.963Z,8.80
2018-09-22T04:24:19.497Z,8.80
2018-09-22T04:26:49.725Z,8.80
2018-09-22T04:29:18.753Z,8.80
2018-09-22T04:31:47.340Z,8.70
2018-09-22T04:34:15.799Z,8.80
2018-09-22T04:36:44.773Z,8.70
2018-09-22T04:39:13.260Z,8.70
2018-09-22T04:41:43.223Z,8.70
2018-09-22T04:44:11.682Z,8.70
2018-09-22T04:46:40.171Z,8.70
2018-09-22T04:49:08.840Z,8.70
2018-09-22T04:51:37.288Z,8.70
2018-09-22T04:54:05.782Z,8.70
2018-09-22T04:56:34.276Z,8.70
2018-09-22T04:59:02.744Z,8.70
2018-09-22T05:01:31.248Z,8.60
2018-09-22T05:03:59.698Z,8.70
2018-09-22T05:06:28.214Z,8.70
2018-09-22T05:08:56.688Z,8.70
2018-09-22T05:11:25.278Z,8.80
2018-09-22T05:13:54.088Z,8.80
2018-09-22T05:16:22.532Z,9.00
2018-09-22T05:18:51.028Z,9.00
2018-09-22T05:21:19.540Z,9.10
2018-09-22T05:23:48.105Z,9.10
2018-09-22T05:26:16.643Z,9.20
2018-09-22T05:28:45.081Z,9.10
2018-09-22T05:31:13.592Z,9.10
2018-09-22T05:33:42.053Z,9.10
2018-09-22T05:36:10.574Z,9.10
2018-09-22T05:38:39.248Z,9.10
2018-09-22T05:41:07.756Z,9.10
2018-09-22T05:43:36.512Z,9.10
2018-09-22T05:46:05.019Z,9.10
2018-09-22T05:48:33.467Z,9.10
2018-09-22T05:51:01.963Z,9.10
2018-09-22T05:53:30.399Z,9.10
2018-09-22T05:55:58.878Z,9.10
2018-09-22T05:58:27.399Z,9.10
2018-09-22T06:00:55.902Z,9.10
2018-09-22T06:03:24.489Z,9.10
2018-09-22T06:05:52.918Z,9.10
2018-09-22T06:08:21.356Z,9.20
2018-09-22T06:10:49.875Z,9.20
2018-09-22T06:13:18.509Z,9.20
2018-09-22T06:15:46.959Z,9.30
2018-09-22T06:18:15.429Z,9.30
2018-09-22T06:20:43.916Z,9.40
2018-09-22T06:23:12.493Z,9.40
2018-09-22T06:25:40.895Z,9.50
2018-09-22T06:28:09.489Z,9.50
2018-09-22T06:30:38.050Z,9.60
2018-09-22T06:33:06.520Z,9.60
2018-09-22T06:35:35.005Z,9.70
2018-09-22T06:38:03.480Z,9.70
2018-09-22T06:40:31.969Z,9.80
2018-09-22T06:43:00.429Z,9.80
2018-09-22T06:45:28.917Z,9.90
2018-09-22T06:47:57.364Z,9.90
2018-09-22T06:50:25.888Z,10.00
2018-09-22T06:52:54.356Z,10.00
2018-09-22T06:55:22.879Z,10.00
2018-09-22T06:57:51.380Z,10.10
2018-09-22T07:00:19.881Z,10.20
2018-09-22T07:02:48.382Z,10.30
2018-09-22T07:05:16.831Z,10.30
2018-09-22T07:07:45.333Z,10.40
2018-09-22T07:10:13.922Z,10.50
2018-09-22T07:12:42.440Z,10.60
2018-09-22T07:15:10.961Z,10.70
2018-09-22T07:17:39.453Z,10.80
2018-09-22T07:20:08.004Z,10.90
2018-09-22T07:22:41.775Z,11.00
2018-09-22T07:25:10.285Z,11.20
2018-09-22T07:27:38.858Z,11.40
2018-09-22T07:30:07.474Z,11.60
2018-09-22T07:32:35.980Z,11.70
2018-09-22T07:35:04.511Z,11.90
2018-09-22T07:37:33.021Z,12.00
2018-09-22T07:40:01.648Z,12.10
2018-09-22T07:42:31.372Z,12.20
2018-09-22T07:44:59.894Z,12.20
2018-09-22T07:47:28.442Z,12.30
2018-09-22T07:49:56.891Z,12.30
2018-09-22T07:52:25.386Z,12.40
2018-09-22T07:54:53.846Z,12.40
2018-09-22T07:57:22.409Z,12.50
2018-09-22T07:59:50.934Z,12.50
2018-09-22T08:02:19.495Z,12.60
2018-09-22T08:04:47.978Z,12.50
2018-09-22T08:07:16.522Z,12.50
2018-09-22T08:09:44.991Z,12.40
2018-09-22T08:12:13.488Z,12.20
2018-09-22T08:14:42.305Z,11.90
2018-09-22T08:17:10.784Z,11.80
2018-09-22T08:19:39.289Z,11.70
2018-09-22T08:22:07.761Z,11.70
2018-09-22T08:24:36.236Z,11.60
2018-09-22T08:27:04.800Z,11.60
2018-09-22T08:29:33.260Z,11.60
2018-09-22T08:32:01.750Z,11.60
2018-09-22T08:34:30.304Z,11.50
2018-09-22T08:36:59.082Z,11.60
2018-09-22T08:39:27.505Z,11.70
2018-09-22T08:41:56.079Z,11.80
2018-09-22T08:44:25.483Z,12.00
2018-09-22T08:46:54.155Z,12.20
2018-09-22T08:49:22.745Z,12.40
2018-09-22T08:51:51.218Z,12.60
2018-09-22T08:54:19.749Z,12.60
2018-09-22T08:56:48.280Z,12.60
2018-09-22T08:59:16.928Z,12.60
2018-09-22T09:01:45.448Z,12.80
2018-09-22T09:04:13.995Z,12.90
2018-09-22T09:06:42.509Z,13.10
2018-09-22T09:09:11.378Z,13.20
2018-09-22T09:11:39.939Z,13.30
2018-09-22T09:14:08.946Z,13.30
2018-09-22T09:16:37.419Z,13.40
2018-09-22T09:19:06.065Z,13.50
2018-09-22T09:21:34.664Z,13.50
2018-09-22T09:24:03.290Z,13.50
2018-09-22T09:26:31.894Z,13.40
2018-09-22T09:29:00.407Z,13.30
2018-09-22T09:31:29.084Z,13.30
2018-09-22T09:33:57.644Z,13.20
2018-09-22T09:36:26.190Z,13.20
2018-09-22T09:38:59.980Z,13.20
2018-09-22T09:41:28.596Z,13.30
2018-09-22T09:43:57.189Z,13.50
2018-09-22T09:46:25.939Z,13.80
2018-09-22T09:48:54.448Z,13.90
2018-09-22T09:51:24.033Z,14.00
2018-09-22T09:53:52.615Z,14.10
2018-09-22T09:56:21.559Z,14.10
2018-09-22T09:58:50.832Z,14.20
2018-09-22T10:01:19.504Z,14.40
2018-09-22T10:03:48.162Z,14.50
2018-09-22T10:06:16.669Z,14.70
2018-09-22T10:08:45.402Z,14.80
2018-09-22T10:11:13.969Z,14.90
2018-09-22T10:13:42.629Z,15.00
2018-09-22T10:16:12.052Z,15.00
2018-09-22T10:18:40.676Z,15.10
2018-09-22T10:21:09.460Z,15.10
2018-09-22T10:23:37.955Z,15.10
2018-09-22T10:26:06.702Z,15.20
2018-09-22T10:28:35.450Z,15.20
2018-09-22T10:31:04.429Z,15.20
2018-09-22T10:33:33.359Z,15.20
2018-09-22T10:36:02.109Z,15.30
2018-09-22T10:38:30.684Z,15.40
2018-09-22T10:40:59.400Z,15.50
2018-09-22T10:43:28.127Z,15.50
2018-09-22T10:45:56.721Z,15.50
2018-09-22T10:48:25.205Z,15.50
2018-09-22T10:50:53.699Z,15.50
2018-09-22T10:53:22.283Z,15.50
2018-09-22T10:55:50.909Z,15.50
2018-09-22T10:58:19.584Z,15.50
2018-09-22T11:00:48.162Z,15.40
2018-09-22T11:03:16.810Z,15.30
2018-09-22T11:05:45.801Z,15.20
2018-09-22T11:08:14.476Z,15.20
2018-09-22T11:10:43.017Z,15.20
2018-09-22T11:13:11.581Z,14.60
2018-09-22T11:15:40.172Z,14.00
2018-09-22T11:18:08.712Z,13.70
2018-09-22T11:20:37.277Z,13.50
2018-09-22T11:34:33.653Z,13.30
2018-09-22T11:37:12.004Z,13.40
2018-09-22T11:39:46.239Z,13.40
2018-09-22T11:42:26.611Z,13.50
2018-09-22T11:45:05.452Z,13.40
2018-09-22T11:47:55.930Z,13.30
2018-09-22T11:50:29.103Z,12.90
2018-09-22T11:53:09.124Z,12.40
2018-09-22T11:55:44.708Z,12.00
2018-09-22T11:58:21.879Z,11.80
2018-09-22T12:00:55.599Z,11.60
2018-09-22T12:03:33.768Z,11.60
2018-09-22T12:06:14.368Z,11.60
2018-09-22T12:08:53.879Z,11.70
2018-09-22T12:11:28.012Z,11.90
2018-09-22T12:14:03.444Z,12.10
2018-09-22T12:16:45.176Z,12.30
2018-09-22T12:19:28.006Z,12.50
2018-09-22T12:22:07.768Z,12.70
2018-09-22T12:24:46.345Z,12.80
2018-09-22T12:27:18.044Z,13.00
2018-09-22T12:29:58.713Z,13.10
2018-09-22T12:32:37.496Z,13.20
2018-09-22T12:35:15.706Z,13.20
2018-09-22T12:37:50.095Z,13.30
2018-09-22T12:40:23.482Z,13.30
2018-09-22T12:43:00.001Z,13.30
2018-09-22T12:45:38.075Z,13.40
2018-09-22T12:48:10.993Z,13.40
2018-09-22T12:50:48.731Z,13.40
2018-09-22T12:53:22.303Z,13.50
2018-09-22T12:55:56.415Z,13.50
2018-09-22T12:58:33.017Z,13.50
2018-09-22T13:01:08.550Z,13.40
2018-09-22T13:03:44.065Z,13.30
2018-09-22T13:06:22.059Z,13.30
2018-09-22T13:08:58.003Z,13.30
2018-09-22T13:11:36.723Z,13.40
2018-09-22T13:14:06.533Z,13.50
2018-09-22T13:16:43.604Z,13.50
2018-09-22T13:19:21.793Z,13.50
2018-09-22T13:22:01.748Z,13.50
2018-09-22T13:24:44.902Z,13.50
2018-09-22T13:27:28.067Z,13.30
2018-09-22T13:30:04.278Z,13.30
2018-09-22T13:32:56.182Z,13.30
2018-09-22T13:44:29.671Z,13.60
2018-09-22T13:47:09.290Z,13.80
2018-09-22T13:49:54.066Z,13.80
2018-09-22T13:52:34.121Z,13.90
2018-09-22T13:55:25.780Z,13.90
2018-09-22T13:58:05.528Z,14.00
2018-09-22T14:00:48.323Z,14.20
2018-09-22T14:03:26.738Z,14.30
2018-09-22T14:06:13.331Z,14.30
2018-09-22T14:08:49.370Z,14.30
2018-09-22T14:11:18.124Z,14.20
2018-09-22T14:13:46.724Z,14.20
2018-09-22T14:16:15.739Z,14.20
2018-09-22T14:18:44.297Z,14.20
2018-09-22T14:21:12.935Z,14.10
2018-09-22T14:23:41.464Z,14.10
2018-09-22T14:26:20.969Z,14.10
2018-09-22T14:28:57.182Z,14.20
2018-09-22T14:31:34.681Z,14.20
2018-09-22T14:34:17.843Z,14.30
2018-09-22T14:36:55.403Z,14.30
2018-09-22T14:39:30.019Z,14.30
2018-09-22T14:42:05.264Z,14.30
2018-09-22T14:44:40.413Z,14.30
2018-09-22T14:47:19.827Z,14.20
2018-09-22T14:49:56.965Z,14.20
2018-09-22T14:52:29.572Z,14.10
2018-09-22T14:55:03.722Z,14.00
2018-09-22T14:57:39.100Z,13.80
2018-09-22T15:00:21.985Z,13.70
2018-09-22T15:03:04.335Z,13.60
2018-09-22T15:05:40.745Z,13.40
2018-09-22T15:08:20.430Z,13.40
2018-09-22T15:10:56.337Z,13.40
2018-09-22T15:13:35.739Z,13.40
2018-09-22T15:16:08.630Z,13.40
2018-09-22T15:18:50.845Z,13.50
2018-09-22T15:21:37.939Z,13.50
2018-09-22T15:30:18.694Z,13.40
2018-09-22T15:33:33.450Z,13.40
2018-09-22T15:36:45.394Z,13.40
2018-09-22T15:42:44.707Z,13.40
2018-09-22T15:45:21.352Z,13.40
2018-09-22T15:47:58.702Z,13.40
2018-09-22T15:50:40.414Z,13.40
2018-09-22T15:53:16.160Z,13.40
2018-09-22T15:55:54.593Z,13.40
2018-09-22T15:58:28.841Z,13.50
2018-09-22T16:01:10.724Z,13.50
2018-09-22T16:04:00.273Z,13.40
2018-09-22T16:06:30.479Z,13.40
2018-09-22T16:09:00.216Z,13.00
2018-09-22T16:11:29.997Z,12.60
2018-09-22T16:13:58.733Z,12.20
2018-09-22T16:16:27.272Z,12.00
2018-09-22T16:18:57.310Z,11.90
2018-09-22T16:21:28.090Z,11.80
2018-09-22T16:23:59.227Z,11.70
2018-09-22T16:26:27.928Z,11.70
2018-09-22T16:28:56.494Z,11.70
2018-09-22T16:31:25.049Z,11.70
2018-09-22T16:33:55.114Z,11.70
2018-09-22T16:36:23.740Z,11.70
2018-09-22T16:38:53.180Z,11.80
2018-09-22T16:41:21.723Z,11.80
2018-09-22T16:43:50.267Z,11.80
2018-09-22T16:46:18.866Z,11.80
2018-09-22T16:48:47.462Z,11.90
2018-09-22T16:51:15.953Z,11.90
2018-09-22T16:53:44.551Z,12.00
2018-09-22T16:56:13.068Z,12.10
2018-09-22T16:58:41.709Z,12.10
2018-09-22T17:01:10.608Z,12.10
2018-09-22T17:03:39.169Z,12.00
2018-09-22T17:06:07.756Z,12.00
2018-09-22T17:08:36.301Z,12.00
2018-09-22T17:11:04.879Z,12.00
2018-09-22T17:13:33.481Z,11.90
2018-09-22T17:16:02.036Z,11.90
2018-09-22T17:18:30.890Z,11.80
2018-09-22T17:20:59.437Z,11.80
2018-09-22T17:23:28.008Z,11.80
2018-09-22T17:25:56.528Z,11.70
2018-09-22T17:28:25.030Z,11.70
2018-09-22T17:30:53.545Z,11.70
2018-09-22T17:33:22.106Z,11.60
2018-09-22T17:35:50.592Z,11.60
2018-09-22T17:38:19.077Z,11.50
2018-09-22T17:40:47.651Z,11.50
2018-09-22T17:43:16.314Z,11.50
2018-09-22T17:45:44.796Z,11.40
2018-09-22T17:48:13.359Z,11.40
2018-09-22T17:50:41.899Z,11.40
2018-09-22T17:53:10.372Z,11.40
2018-09-22T17:55:39.844Z,11.40
2018-09-22T17:58:10.164Z,11.40
2018-09-22T18:00:45.928Z,11.40
2018-09-22T18:03:17.345Z,11.40
2018-09-22T18:05:50.001Z,11.40
2018-09-22T18:08:24.324Z,11.40
2018-09-22T18:10:55.958Z,11.30
2018-09-22T18:13:26.478Z,11.30
2018-09-22T18:15:57.215Z,11.30
2018-09-22T18:18:27.435Z,11.20
2018-09-22T18:21:05.401Z,11.10
2018-09-22T18:23:36.707Z,11.10
2018-09-22T18:26:09.860Z,11.00
2018-09-22T18:28:40.824Z,11.00
2018-09-22T18:31:10.672Z,10.90
2018-09-22T18:33:41.993Z,10.90
2018-09-22T18:36:12.365Z,10.90
2018-09-22T18:38:44.120Z,10.80
2018-09-22T18:41:14.421Z,10.80
2018-09-22T18:43:44.636Z,10.80
2018-09-22T18:46:16.443Z,10.80
2018-09-22T18:48:50.851Z,10.80
2018-09-22T18:51:21.042Z,10.80
2018-09-22T18:53:51.855Z,10.80
2018-09-22T18:56:23.423Z,10.70
2018-09-22T18:58:55.665Z,10.70
2018-09-22T19:01:29.150Z,10.70
2018-09-22T19:03:59.743Z,10.70
2018-09-22T19:06:30.867Z,10.70
2018-09-22T19:09:01.416Z,10.70
2018-09-22T19:11:34.944Z,10.70
2018-09-22T19:14:42.025Z,10.70
2018-09-22T19:19:22.629Z,10.70
2018-09-22T19:21:56.489Z,10.70
2018-09-22T19:24:30.630Z,10.70
2018-09-22T19:27:04.689Z,10.70
2018-09-22T19:29:36.867Z,10.70
2018-09-22T19:32:23.299Z,10.70
2018-09-22T19:34:56.037Z,10.70
2018-09-22T19:37:29.224Z,10.60
2018-09-22T19:40:07.712Z,10.60
2018-09-22T19:42:41.497Z,10.60
2018-09-22T19:45:13.789Z,10.60
2018-09-22T19:48:16.835Z,10.50
2018-09-22T19:50:51.592Z,10.50
2018-09-22T19:53:20.075Z,10.50
2018-09-22T19:55:48.586Z,10.50
2018-09-22T19:58:17.071Z,10.40
2018-09-22T20:00:45.603Z,10.40
2018-09-22T20:03:14.071Z,10.40
2018-09-22T20:05:42.591Z,10.40
2018-09-22T20:08:11.071Z,10.40
2018-09-22T20:10:39.574Z,10.50
2018-09-22T20:13:09.755Z,10.50
2018-09-22T20:15:38.266Z,10.50
2018-09-22T20:18:06.813Z,10.40
2018-09-22T20:20:35.573Z,10.40
2018-09-22T20:23:04.099Z,10.40
2018-09-22T20:25:32.617Z,10.30
2018-09-22T20:28:01.063Z,10.20
2018-09-22T20:30:29.620Z,10.20
2018-09-22T20:32:58.098Z,10.10
2018-09-22T20:35:26.659Z,10.10
2018-09-22T20:37:55.148Z,10.10
2018-09-22T20:40:23.661Z,10.10
2018-09-22T20:42:52.184Z,10.10
2018-09-22T20:45:20.759Z,10.10
2018-09-22T20:47:49.291Z,10.10
2018-09-22T20:50:17.797Z,10.10
2018-09-22T20:52:46.273Z,10.10
2018-09-22T20:55:14.787Z,10.00
2018-09-22T20:57:43.302Z,10.10
2018-09-22T21:00:11.860Z,10.00
2018-09-22T21:02:40.355Z,10.00
2018-09-22T21:05:08.900Z,10.00
2018-09-22T21:07:37.665Z,9.90
2018-09-22T21:10:06.456Z,9.90
2018-09-22T21:12:35.000Z,9.90
2018-09-22T21:15:03.640Z,9.80
2018-09-22T21:17:32.338Z,9.80
2018-09-22T21:20:00.819Z,9.80
2018-09-22T21:22:29.313Z,9.80
2018-09-22T21:24:57.760Z,9.80
2018-09-22T21:27:26.278Z,9.80
2018-09-22T21:29:54.868Z,9.80
2018-09-22T21:32:23.359Z,9.70
2018-09-22T21:34:51.790Z,9.70
2018-09-22T21:37:20.395Z,9.70
2018-09-22T21:39:48.838Z,9.70
2018-09-22T21:42:23.876Z,9.70
2018-09-22T21:44:52.308Z,9.70
2018-09-22T21:47:20.871Z,9.70
2018-09-22T21:49:49.341Z,9.70
2018-09-22T21:52:17.827Z,9.70
2018-09-22T21:54:46.295Z,9.70
2018-09-22T21:57:14.783Z,9.70
2018-09-22T21:59:43.260Z,9.70
2018-09-22T22:02:11.711Z,9.80
2018-09-22T22:04:40.240Z,9.80
2018-09-22T22:07:08.873Z,9.90
2018-09-22T22:09:37.328Z,9.90
2018-09-22T22:12:05.841Z,9.90
2018-09-22T22:14:34.324Z,9.90
2018-09-22T22:17:02.832Z,10.00
2018-09-22T22:19:31.360Z,10.00
2018-09-22T22:21:59.812Z,9.90
2018-09-22T22:24:28.332Z,10.00
2018-09-22T22:26:56.803Z,10.00
2018-09-22T22:29:25.300Z,9.90
2018-09-22T22:31:53.786Z,10.00
2018-09-22T22:34:22.325Z,10.00
2018-09-22T22:36:50.836Z,10.00
2018-09-22T22:39:19.352Z,10.10
2018-09-22T22:41:47.847Z,10.00
2018-09-22T22:44:16.345Z,10.10
2018-09-22T22:46:45.093Z,10.10
2018-09-22T22:49:15.761Z,10.00
2018-09-22T22:51:44.513Z,10.00
2018-09-22T22:54:12.972Z,10.00
2018-09-22T22:56:41.439Z,10.00
2018-09-22T22:59:09.982Z,10.00
2018-09-22T23:01:38.428Z,9.90
2018-09-22T23:04:12.604Z,9.90
2018-09-22T23:06:41.773Z,9.80
2018-09-22T23:09:11.026Z,9.90
2018-09-22T23:11:40.544Z,9.80
2018-09-22T23:14:09.881Z,9.80
2018-09-22T23:16:39.181Z,9.90
2018-09-22T23:19:07.733Z,9.90
2018-09-22T23:21:36.507Z,10.00
2018-09-22T23:24:05.031Z,10.00
2018-09-22T23:26:33.652Z,10.10
2018-09-22T23:29:04.115Z,10.10
2018-09-22T23:31:33.717Z,10.10
2018-09-22T23:34:02.303Z,10.10
2018-09-22T23:36:30.812Z,10.10
2018-09-22T23:38:59.343Z,10.20
2018-09-22T23:41:27.789Z,10.20
2018-09-22T23:43:57.510Z,10.20
2018-09-22T23:46:26.007Z,10.20
2018-09-22T23:48:55.700Z,10.20
2018-09-22T23:51:24.295Z,10.20
2018-09-22T23:53:52.805Z,10.20
2018-09-22T23:56:21.676Z,10.20
2018-09-22T23:58:50.216Z,10.20
